KARW

Beaufort County Airport

Beaufort, South Carolina, USA
METAR KARW 211515Z AUTO 08015G23KT 10SM SCT080 19/10 A3035 RMK AO2
Observed Flight Rules
Apr-21 @ 15:15 UTC (23 minutes ago) Visual Flight Rules
Wind Visibility Clouds
80° at 15 knots
 Gusting to 23 knots
10 miles
  • Scattered at 8,000' AGL
Temperatures Readings
Current 19°C / 66°F
Dewpoint 10°C / 50°F
Humidity 56%
Altimeter 30.35" Hg
Pressure 1028 hPa
Elevation 4
METAR KARW 211515Z AUTO 08015G23KT 10SM SCT080 19/10 A3035 RMK AO2
Observed Flight Rules
Apr-21 @ 15:15 UTC
(23 minutes ago)
VFR
Wind Visibility
80° at 15 knots
 Gusting to 23 knots
10 miles
Clouds
  • Scattered at 8,000' AGL
Temperature Dewpoint
19°C / 66°F 10°C / 50°F
Humidity Altimeter Pressure
56% 30.35" Hg 1028 hPa